Terminal Aerodrome Forecast
Issued by NWS

Home | Current Version | Previous Version | Graphics & Text | Print | Product List | Glossary On
Versions: 1 2 3 4 5 6 7 8 9 10 11 12 13 14 15 16 17
301
FTUS43 KMPX 211738
TAFRNH
TAF
KRNH 211738Z 2118/2218 24010KT 4SM -RA BR OVC010
     FM212000 28012G19KT P6SM SCT008 OVC012
     FM220100 26010KT P6SM OVC015
     FM220300 25010KT P6SM -DZ OVC015
     FM220700 25008KT P6SM VCSH OVC015
     FM221500 27010KT P6SM BKN025=

USA.gov is the U.S. government's official web portal to all federal, state and local government web resources and services.